Time;durP1;ratioP1;P1;durP2;ratioP2;P2;SDS_P1;SDS_P2;PMS_P1;PMS_P2;Temp;Humidity;BMP_temperature;BMP_pressure;BME280_temperature;BME280_humidity;BME280_pressure;Samples;Min_cycle;Max_cycle;Signal;HPM_P1;HPM_P2
2021/09/13 00:01:25;0.00;0.00;0.62;0.00;0.00;0.62;4.20;3.80;;;24.60;37.90;;;;;;2253652;61;20359;-59
2021/09/13 00:04:11;0.00;0.00;0.62;0.00;0.00;0.62;3.60;3.30;;;24.60;37.90;;;;;;2253512;61;20410;-58
2021/09/13 00:06:57;0.00;0.00;0.62;0.00;0.00;0.62;5.50;3.60;;;24.50;37.90;;;;;;2253098;61;20364;-59
2021/09/13 00:09:41;0.00;0.00;0.62;0.00;0.00;0.62;4.57;4.17;;;24.50;37.90;;;;;;2253412;61;20367;-59
2021/09/13 00:12:26;0.00;0.00;0.62;0.00;0.00;0.62;5.97;3.90;;;24.60;38.00;;;;;;2253971;61;20371;-60
2021/09/13 00:15:12;0.00;0.00;0.62;0.00;0.00;0.62;5.30;4.10;;;24.50;38.00;;;;;;2253376;61;20691;-59
2021/09/13 00:17:59;0.00;0.00;0.62;0.00;0.00;0.62;4.10;3.70;;;24.50;38.00;;;;;;2253602;61;20707;-60
2021/09/13 00:20:46;0.00;0.00;0.62;0.00;0.00;0.62;5.90;3.17;;;24.50;38.10;;;;;;2253165;61;20712;-56
2021/09/13 00:23:31;0.00;0.00;0.62;0.00;0.00;0.62;3.30;3.00;;;24.50;38.20;;;;;;2253632;61;20744;-56
2021/09/13 00:26:17;0.00;0.00;0.62;0.00;0.00;0.62;4.53;4.00;;;24.50;38.20;;;;;;2253401;61;20387;-57
2021/09/13 00:29:02;0.00;0.00;0.62;0.00;0.00;0.62;4.43;3.80;;;24.50;38.20;;;;;;2253110;61;20431;-58
2021/09/13 00:31:48;0.00;0.00;0.62;0.00;0.00;0.62;4.43;3.50;;;24.50;38.20;;;;;;2255670;61;20732;-58
2021/09/13 00:34:35;0.00;0.00;0.62;0.00;0.00;0.62;3.57;3.27;;;24.50;38.20;;;;;;2253624;61;20379;-59
2021/09/13 00:37:22;0.00;0.00;0.62;0.00;0.00;0.62;4.20;3.57;;;24.50;38.20;;;;;;2253283;61;20431;-57
2021/09/13 00:40:08;0.00;0.00;0.62;0.00;0.00;0.62;3.47;3.17;;;24.50;38.20;;;;;;2253430;61;20383;-57
2021/09/13 00:42:54;0.00;0.00;0.62;0.00;0.00;0.62;4.77;4.37;;;24.50;38.20;;;;;;2253054;61;20708;-59
2021/09/13 00:45:40;0.00;0.00;0.62;0.00;0.00;0.62;5.20;4.23;;;24.50;38.20;;;;;;2254142;61;20374;-58
2021/09/13 00:48:25;0.00;0.00;0.62;0.00;0.00;0.62;5.90;3.97;;;24.60;38.20;;;;;;2253730;61;20359;-59
2021/09/13 00:51:10;0.00;0.00;0.62;0.00;0.00;0.62;9.90;4.27;;;24.50;38.10;;;;;;2253959;61;20392;-58
2021/09/13 00:53:57;0.00;0.00;0.62;0.00;0.00;0.62;4.67;4.00;;;24.50;38.20;;;;;;2253972;61;20359;-58
2021/09/13 00:56:42;0.00;0.00;0.62;0.00;0.00;0.62;5.03;4.37;;;24.50;38.20;;;;;;2254229;61;20356;-53
2021/09/13 00:59:27;0.00;0.00;0.62;0.00;0.00;0.62;5.00;4.50;;;24.50;38.30;;;;;;2253793;61;20383;-57
2021/09/13 01:02:12;0.00;0.00;0.62;0.00;0.00;0.62;11.50;4.30;;;24.40;38.20;;;;;;2253709;61;20408;-58
2021/09/13 01:04:56;0.00;0.00;0.62;0.00;0.00;0.62;8.97;5.30;;;24.40;38.30;;;;;;2253614;61;20406;-59
2021/09/13 01:07:41;0.00;0.00;0.62;0.00;0.00;0.62;6.10;4.77;;;24.40;38.30;;;;;;2254250;61;20456;-58
2021/09/13 01:10:28;0.00;0.00;0.62;0.00;0.00;0.62;5.07;3.77;;;24.30;38.30;;;;;;2253898;61;20725;-58
2021/09/13 01:13:12;0.00;0.00;0.62;0.00;0.00;0.62;5.43;4.40;;;24.30;38.40;;;;;;2256048;61;20375;-59
2021/09/13 01:16:02;0.00;0.00;0.62;0.00;0.00;0.62;4.90;4.40;;;24.30;38.50;;;;;;2254261;61;20391;-59
2021/09/13 01:18:47;0.00;0.00;0.62;0.00;0.00;0.62;5.00;4.17;;;24.30;38.50;;;;;;2253809;61;20411;-57
2021/09/13 01:21:33;0.00;0.00;0.62;0.00;0.00;0.62;4.00;3.53;;;24.20;38.50;;;;;;2253313;61;20619;-59
2021/09/13 01:24:19;0.00;0.00;0.62;0.00;0.00;0.62;4.70;4.30;;;24.20;38.60;;;;;;2253721;61;20703;-59
2021/09/13 01:27:07;0.00;0.00;0.62;0.00;0.00;0.62;5.33;4.17;;;24.20;38.60;;;;;;2256224;61;20956;-58
2021/09/13 01:29:52;0.00;0.00;0.62;0.00;0.00;0.62;4.97;4.33;;;24.20;38.70;;;;;;2254261;61;20352;-57
2021/09/13 01:32:36;0.00;0.00;0.62;0.00;0.00;0.62;5.17;4.00;;;24.20;38.60;;;;;;2253383;61;20395;-57
2021/09/13 01:35:21;0.00;0.00;0.62;0.00;0.00;0.62;3.60;3.30;;;24.20;38.60;;;;;;2255870;61;20739;-57
2021/09/13 01:38:06;0.00;0.00;0.62;0.00;0.00;0.62;6.67;3.50;;;24.20;38.60;;;;;;2253811;61;20399;-60
2021/09/13 01:40:53;0.00;0.00;0.62;0.00;0.00;0.62;3.50;3.20;;;24.20;39.40;;;;;;2253913;61;20372;-58
2021/09/13 01:43:38;0.00;0.00;0.62;0.00;0.00;0.62;3.47;2.80;;;24.10;38.70;;;;;;2255987;61;20368;-58
2021/09/13 01:46:22;0.00;0.00;0.62;0.00;0.00;0.62;3.17;2.87;;;24.20;38.90;;;;;;2253317;61;20747;-60
2021/09/13 01:49:11;0.00;0.00;0.62;0.00;0.00;0.62;3.73;3.23;;;24.10;38.90;;;;;;2253614;61;20396;-60
2021/09/13 01:51:55;0.00;0.00;0.62;0.00;0.00;0.62;4.13;2.80;;;24.20;39.10;;;;;;2253601;61;20615;-60
2021/09/13 01:54:39;0.00;0.00;0.62;0.00;0.00;0.62;3.93;3.53;;;24.20;39.10;;;;;;2253212;61;20398;-59
2021/09/13 01:57:29;0.00;0.00;0.62;0.00;0.00;0.62;4.60;3.20;;;24.20;39.00;;;;;;2253199;61;20399;-60
2021/09/13 02:00:15;0.00;0.00;0.62;0.00;0.00;0.62;3.77;3.47;;;24.30;39.00;;;;;;2253651;61;20743;-59
2021/09/13 02:03:01;0.00;0.00;0.62;0.00;0.00;0.62;4.43;3.73;;;24.30;39.00;;;;;;2253818;61;20391;-56
2021/09/13 02:05:54;0.00;0.00;0.62;0.00;0.00;0.62;3.13;2.60;;;24.30;38.90;;;;;;2252954;61;20384;-60
2021/09/13 02:08:43;0.00;0.00;0.62;0.00;0.00;0.62;5.10;3.70;;;24.30;38.80;;;;;;2255543;61;20364;-59
2021/09/13 02:11:28;0.00;0.00;0.62;0.00;0.00;0.62;4.87;3.07;;;24.30;38.80;;;;;;2253916;61;20415;-57
2021/09/13 02:14:14;0.00;0.00;0.62;0.00;0.00;0.62;4.13;3.70;;;24.30;38.90;;;;;;2253422;61;20399;-60
2021/09/13 02:16:59;0.00;0.00;0.62;0.00;0.00;0.62;4.10;3.70;;;24.30;38.80;;;;;;2253258;61;20774;-59
2021/09/13 02:19:43;0.00;0.00;0.62;0.00;0.00;0.62;5.37;3.53;;;24.30;38.80;;;;;;2253084;61;20419;-59
2021/09/13 02:22:28;0.00;0.00;0.62;0.00;0.00;0.62;4.70;3.40;;;24.20;38.70;;;;;;2253649;61;20403;-56
2021/09/13 02:25:14;0.00;0.00;0.62;0.00;0.00;0.62;4.07;3.67;;;24.20;38.70;;;;;;2253364;61;20451;-59
2021/09/13 02:27:59;0.00;0.00;0.62;0.00;0.00;0.62;7.47;3.23;;;24.20;38.80;;;;;;2253012;61;20356;-59
2021/09/13 02:30:45;0.00;0.00;0.62;0.00;0.00;0.62;3.30;3.00;;;24.20;38.80;;;;;;2253752;61;20344;-60
2021/09/13 02:33:31;0.00;0.00;0.62;0.00;0.00;0.62;4.10;3.30;;;24.20;38.80;;;;;;2253413;61;20367;-58
2021/09/13 02:36:15;0.00;0.00;0.62;0.00;0.00;0.62;3.27;2.97;;;24.20;38.80;;;;;;2253466;61;20736;-58
2021/09/13 02:39:00;0.00;0.00;0.62;0.00;0.00;0.62;3.97;3.20;;;24.20;38.80;;;;;;2253304;61;20388;-59
2021/09/13 02:41:46;0.00;0.00;0.62;0.00;0.00;0.62;5.13;3.30;;;24.20;38.90;;;;;;2253035;61;20356;-59
2021/09/13 02:44:31;0.00;0.00;0.62;0.00;0.00;0.62;4.50;2.70;;;24.10;38.80;;;;;;2253509;61;20427;-59
2021/09/13 02:47:22;0.00;0.00;0.62;0.00;0.00;0.62;5.80;2.97;;;24.10;38.90;;;;;;2253564;61;20359;-56
2021/09/13 02:50:08;0.00;0.00;0.62;0.00;0.00;0.62;4.73;3.17;;;24.10;39.10;;;;;;2252873;61;20487;-59
2021/09/13 02:52:53;0.00;0.00;0.62;0.00;0.00;0.62;3.50;2.40;;;24.10;39.10;;;;;;2253318;61;20443;-59
2021/09/13 02:55:39;0.00;0.00;0.62;0.00;0.00;0.62;3.63;2.70;;;24.10;39.10;;;;;;2253166;61;20422;-59
2021/09/13 02:58:24;0.00;0.00;0.62;0.00;0.00;0.62;3.30;3.00;;;24.10;39.10;;;;;;2253381;61;20436;-59
2021/09/13 03:01:10;0.00;0.00;0.62;0.00;0.00;0.62;3.50;2.50;;;24.10;39.10;;;;;;2253301;61;20359;-57
2021/09/13 03:03:55;0.00;0.00;0.62;0.00;0.00;0.62;3.53;3.00;;;24.10;39.10;;;;;;2252818;61;20569;-58
2021/09/13 03:06:40;0.00;0.00;0.62;0.00;0.00;0.62;2.60;2.23;;;24.10;39.10;;;;;;2253770;61;20428;-58
2021/09/13 03:09:25;0.00;0.00;0.62;0.00;0.00;0.62;4.13;3.00;;;24.10;39.10;;;;;;2253451;61;20396;-58
2021/09/13 03:12:10;0.00;0.00;0.62;0.00;0.00;0.62;4.10;2.37;;;24.10;39.10;;;;;;2253212;61;20582;-59
2021/09/13 03:15:01;0.00;0.00;0.62;0.00;0.00;0.62;3.33;2.30;;;24.10;39.10;;;;;;2253124;61;20379;-60
2021/09/13 03:17:46;0.00;0.00;0.62;0.00;0.00;0.62;2.40;2.13;;;24.20;39.10;;;;;;2253162;61;20576;-60
2021/09/13 03:20:32;0.00;0.00;0.62;0.00;0.00;0.62;3.40;2.70;;;24.20;39.10;;;;;;2253301;61;20469;-59
2021/09/13 03:23:17;0.00;0.00;0.62;0.00;0.00;0.62;3.10;2.50;;;24.20;39.10;;;;;;2253179;61;20376;-58
2021/09/13 03:26:02;0.00;0.00;0.62;0.00;0.00;0.62;3.77;2.43;;;24.20;39.00;;;;;;2252664;61;20480;-57
2021/09/13 03:28:49;0.00;0.00;0.62;0.00;0.00;0.62;2.83;2.53;;;24.20;38.90;;;;;;2250888;61;20363;-59
2021/09/13 03:31:34;0.00;0.00;0.62;0.00;0.00;0.62;5.33;2.30;;;24.20;38.80;;;;;;2253087;61;20360;-59
2021/09/13 03:34:19;0.00;0.00;0.62;0.00;0.00;0.62;3.10;2.43;;;24.10;38.80;;;;;;2252827;61;20367;-59
2021/09/13 03:37:05;0.00;0.00;0.62;0.00;0.00;0.62;4.07;1.93;;;24.10;38.80;;;;;;2253116;61;20361;-59
2021/09/13 03:39:50;0.00;0.00;0.62;0.00;0.00;0.62;3.57;2.30;;;24.10;38.90;;;;;;2253286;61;20480;-59
2021/09/13 03:42:36;0.00;0.00;0.62;0.00;0.00;0.62;2.50;1.97;;;24.10;39.00;;;;;;2253080;61;20724;-59
2021/09/13 03:45:20;0.00;0.00;0.62;0.00;0.00;0.62;3.57;2.00;;;24.10;39.10;;;;;;2253246;61;20511;-58
2021/09/13 03:48:23;0.00;0.00;0.62;0.00;0.00;0.62;3.93;2.03;;;24.10;39.10;;;;;;2252961;61;20359;-58
2021/09/13 03:51:09;0.00;0.00;0.62;0.00;0.00;0.62;2.10;1.80;;;24.10;39.10;;;;;;2253434;61;20364;-57
2021/09/13 03:53:55;0.00;0.00;0.62;0.00;0.00;0.62;3.90;2.00;;;24.10;39.10;;;;;;2253779;61;20360;-59
2021/09/13 03:56:39;0.00;0.00;0.62;0.00;0.00;0.62;3.03;2.10;;;24.10;39.10;;;;;;2253127;61;20423;-59
2021/09/13 03:59:24;0.00;0.00;0.62;0.00;0.00;0.62;2.30;1.83;;;24.10;39.10;;;;;;2253016;61;20423;-59
2021/09/13 04:02:09;0.00;0.00;0.62;0.00;0.00;0.62;2.33;2.07;;;24.10;39.10;;;;;;2253196;61;20391;-59
2021/09/13 04:04:53;0.00;0.00;0.62;0.00;0.00;0.62;4.17;2.17;;;24.10;39.10;;;;;;2253380;61;20704;-57
2021/09/13 04:13:50;0.00;0.00;0.62;0.00;0.00;0.62;2.73;1.67;;;24.20;39.10;;;;;;2252855;61;20360;-60
2021/09/13 04:16:43;0.00;0.00;0.62;0.00;0.00;0.62;3.53;1.90;;;24.10;39.10;;;;;;2253369;61;20364;-59
2021/09/13 04:19:53;0.00;0.00;0.62;0.00;0.00;0.62;2.47;1.60;;;24.20;39.20;;;;;;2253647;61;20371;-57
2021/09/13 04:22:57;0.00;0.00;0.62;0.00;0.00;0.62;2.10;1.80;;;24.10;39.10;;;;;;2253774;61;20743;-59
2021/09/13 04:25:55;0.00;0.00;0.62;0.00;0.00;0.62;4.00;2.50;;;24.20;39.10;;;;;;2253144;61;20462;-59
2021/09/13 04:28:54;0.00;0.00;0.62;0.00;0.00;0.62;3.50;2.13;;;24.20;39.80;;;;;;2254100;61;20566;-59
2021/09/13 04:32:00;0.00;0.00;0.62;0.00;0.00;0.62;2.53;1.70;;;24.20;39.10;;;;;;2253769;61;20363;-59
2021/09/13 04:35:04;0.00;0.00;0.62;0.00;0.00;0.62;3.20;1.90;;;24.20;39.10;;;;;;2254232;61;20620;-59
2021/09/13 04:38:18;0.00;0.00;0.62;0.00;0.00;0.62;2.83;2.00;;;24.20;39.20;;;;;;2253886;61;20406;-59
2021/09/13 04:41:36;0.00;0.00;0.62;0.00;0.00;0.62;3.73;1.80;;;24.20;39.10;;;;;;2253645;61;20444;-59
2021/09/13 04:44:44;0.00;0.00;0.62;0.00;0.00;0.62;3.30;1.57;;;24.20;39.80;;;;;;2253714;61;20396;-60
2021/09/13 04:47:47;0.00;0.00;0.62;0.00;0.00;0.62;3.80;1.90;;;24.20;39.10;;;;;;2253726;61;20739;-59
2021/09/13 04:51:05;0.00;0.00;0.62;0.00;0.00;0.62;2.93;1.90;;;24.30;39.00;;;;;;2249089;61;20440;-58
2021/09/13 04:54:12;0.00;0.00;0.62;0.00;0.00;0.62;2.73;2.20;;;24.20;38.70;;;;;;2253629;61;20487;-57
2021/09/13 04:56:58;0.00;0.00;0.62;0.00;0.00;0.62;3.20;1.60;;;24.20;38.70;;;;;;2253818;61;20407;-59
2021/09/13 04:59:42;0.00;0.00;0.62;0.00;0.00;0.62;3.83;2.10;;;24.20;38.60;;;;;;2253690;61;20382;-59
2021/09/13 05:02:27;0.00;0.00;0.62;0.00;0.00;0.62;4.40;1.53;;;24.20;38.60;;;;;;2253432;61;20367;-59
2021/09/13 05:05:12;0.00;0.00;0.62;0.00;0.00;0.62;3.30;1.80;;;24.10;38.60;;;;;;2253707;61;20374;-60
2021/09/13 05:07:57;0.00;0.00;0.62;0.00;0.00;0.62;3.23;1.40;;;24.10;38.60;;;;;;2253912;61;20445;-58
2021/09/13 05:10:42;0.00;0.00;0.62;0.00;0.00;0.62;2.00;1.50;;;24.00;38.60;;;;;;2253281;61;20371;-60
2021/09/13 05:13:29;0.00;0.00;0.62;0.00;0.00;0.62;2.30;1.50;;;24.00;38.80;;;;;;2253643;61;20443;-59
2021/09/13 05:16:14;0.00;0.00;0.62;0.00;0.00;0.62;2.97;2.10;;;24.00;39.00;;;;;;2253728;61;20403;-60
2021/09/13 05:19:00;0.00;0.00;0.62;0.00;0.00;0.62;3.07;1.77;;;24.00;39.00;;;;;;2253725;61;20438;-60
2021/09/13 05:21:46;0.00;0.00;0.62;0.00;0.00;0.62;3.67;1.70;;;24.00;39.00;;;;;;2253633;61;20395;-60
2021/09/13 05:24:35;0.00;0.00;0.62;0.00;0.00;0.62;2.23;1.60;;;24.10;39.10;;;;;;2253167;61;20649;-60
2021/09/13 05:27:24;0.00;0.00;0.62;0.00;0.00;0.62;2.60;1.70;;;24.10;39.10;;;;;;2253875;61;20359;-57
2021/09/13 05:30:14;0.00;0.00;0.62;0.00;0.00;0.62;3.97;1.90;;;24.10;39.10;;;;;;2253741;61;20589;-60
2021/09/13 05:32:59;0.00;0.00;0.62;0.00;0.00;0.62;2.40;1.73;;;24.20;39.10;;;;;;2253240;61;20791;-60
2021/09/13 05:35:44;0.00;0.00;0.62;0.00;0.00;0.62;2.60;1.40;;;24.20;39.10;;;;;;2253514;61;20426;-59
2021/09/13 05:38:33;0.00;0.00;0.62;0.00;0.00;0.62;3.80;1.83;;;24.20;39.10;;;;;;2253518;61;20387;-58
2021/09/13 05:41:30;0.00;0.00;0.62;0.00;0.00;0.62;3.33;2.17;;;24.20;39.10;;;;;;2253776;61;20392;-58
2021/09/13 05:44:14;0.00;0.00;0.62;0.00;0.00;0.62;3.67;2.00;;;24.20;39.10;;;;;;2253270;61;20367;-59
2021/09/13 05:47:01;0.00;0.00;0.62;0.00;0.00;0.62;2.33;1.73;;;24.20;39.10;;;;;;2253128;61;20423;-60
2021/09/13 05:49:47;0.00;0.00;0.62;0.00;0.00;0.62;2.90;1.97;;;24.20;39.20;;;;;;2253795;61;20364;-58
2021/09/13 05:52:37;0.00;0.00;0.62;0.00;0.00;0.62;2.80;1.93;;;24.10;39.10;;;;;;2253727;61;20355;-58
2021/09/13 05:55:22;0.00;0.00;0.62;0.00;0.00;0.62;2.07;1.43;;;24.10;39.10;;;;;;2253104;61;20384;-61
2021/09/13 05:58:08;0.00;0.00;0.62;0.00;0.00;0.62;3.77;1.70;;;24.00;39.00;;;;;;2253379;61;20367;-59
2021/09/13 06:00:53;0.00;0.00;0.62;0.00;0.00;0.62;4.27;1.93;;;24.00;39.60;;;;;;2253461;61;20391;-58
2021/09/13 06:03:39;0.00;0.00;0.62;0.00;0.00;0.62;3.50;1.83;;;24.00;39.00;;;;;;2254084;61;20356;-60
2021/09/13 06:06:31;0.00;0.00;0.62;0.00;0.00;0.62;2.73;1.90;;;24.00;39.10;;;;;;2253300;61;20615;-58
2021/09/13 06:09:16;0.00;0.00;0.62;0.00;0.00;0.62;2.60;1.60;;;24.00;39.20;;;;;;2253652;61;20587;-56
2021/09/13 06:12:01;0.00;0.00;0.62;0.00;0.00;0.62;3.50;1.50;;;24.00;39.10;;;;;;2254035;61;20363;-58
2021/09/13 06:14:56;0.00;0.00;0.62;0.00;0.00;0.62;2.73;1.67;;;24.00;39.20;;;;;;2253657;61;20391;-61
2021/09/13 06:17:43;0.00;0.00;0.62;0.00;0.00;0.62;4.07;1.97;;;24.00;39.20;;;;;;2253622;61;20423;-61
2021/09/13 06:20:31;0.00;0.00;0.62;0.00;0.00;0.62;2.77;1.83;;;24.10;39.40;;;;;;2253187;61;20391;-59
2021/09/13 06:23:17;0.00;0.00;0.62;0.00;0.00;0.62;2.30;1.53;;;24.00;40.00;;;;;;2253672;61;20400;-60
2021/09/13 06:26:02;0.00;0.00;0.62;0.00;0.00;0.62;4.00;2.03;;;24.00;39.40;;;;;;2253495;61;20430;-59
2021/09/13 06:28:47;0.00;0.00;0.62;0.00;0.00;0.62;3.20;1.83;;;24.00;39.50;;;;;;2253316;61;20364;-56
2021/09/13 06:31:32;0.00;0.00;0.62;0.00;0.00;0.62;4.27;1.80;;;24.00;39.50;;;;;;2253106;61;20431;-58
2021/09/13 06:34:18;0.00;0.00;0.62;0.00;0.00;0.62;4.23;2.60;;;24.00;40.20;;;;;;2253331;61;20411;-59
2021/09/13 06:37:06;0.00;0.00;0.62;0.00;0.00;0.62;4.53;2.50;;;24.00;39.60;;;;;;2253639;61;20432;-59
2021/09/13 06:39:57;0.00;0.00;0.62;0.00;0.00;0.62;4.53;2.00;;;24.00;39.70;;;;;;2253164;61;20446;-60
2021/09/13 06:42:41;0.00;0.00;0.62;0.00;0.00;0.62;2.13;1.80;;;24.00;39.80;;;;;;2253037;61;20380;-60
2021/09/13 06:45:26;0.00;0.00;0.62;0.00;0.00;0.62;3.97;2.23;;;24.00;39.90;;;;;;2252946;61;20815;-59
2021/09/13 06:48:14;0.00;0.00;0.62;0.00;0.00;0.62;3.60;2.23;;;24.00;40.00;;;;;;2253470;61;20407;-59
2021/09/13 06:50:58;0.00;0.00;0.62;0.00;0.00;0.62;3.60;2.30;;;24.10;40.00;;;;;;2253688;61;20363;-60
2021/09/13 06:53:44;0.00;0.00;0.62;0.00;0.00;0.62;2.40;1.90;;;24.10;40.00;;;;;;2253414;61;20403;-57
2021/09/13 06:56:29;0.00;0.00;0.62;0.00;0.00;0.62;2.97;2.17;;;24.10;40.00;;;;;;2253553;61;20780;-60
2021/09/13 06:59:14;0.00;0.00;0.62;0.00;0.00;0.62;2.27;1.90;;;24.20;40.10;;;;;;2254009;61;20391;-60
2021/09/13 07:01:59;0.00;0.00;0.62;0.00;0.00;0.62;5.27;2.90;;;24.20;40.10;;;;;;2253346;61;20408;-60
2021/09/13 07:04:44;0.00;0.00;0.62;0.00;0.00;0.62;2.93;2.00;;;24.30;40.20;;;;;;2253512;61;20787;-61
2021/09/13 07:07:28;0.00;0.00;0.62;0.00;0.00;0.62;2.80;1.70;;;24.30;40.10;;;;;;2253641;61;20356;-60
2021/09/13 07:10:17;0.00;0.00;0.62;0.00;0.00;0.62;3.60;2.17;;;24.30;40.10;;;;;;2253750;61;20576;-59
2021/09/13 07:13:02;0.00;0.00;0.62;0.00;0.00;0.62;2.90;2.20;;;24.30;40.10;;;;;;2253669;61;20364;-61
2021/09/13 07:15:47;0.00;0.00;0.62;0.00;0.00;0.62;3.80;2.20;;;24.40;40.10;;;;;;2253281;61;20784;-55
2021/09/13 07:18:33;0.00;0.00;0.62;0.00;0.00;0.62;3.60;2.43;;;24.40;40.00;;;;;;2253963;61;20387;-59
2021/09/13 07:21:18;0.00;0.00;0.62;0.00;0.00;0.62;3.27;1.80;;;24.50;40.10;;;;;;2254055;61;20537;-59
2021/09/13 07:24:03;0.00;0.00;0.62;0.00;0.00;0.62;2.67;2.20;;;24.50;40.10;;;;;;2253207;61;20360;-60
2021/09/13 07:26:49;0.00;0.00;0.62;0.00;0.00;0.62;5.07;1.93;;;24.50;40.10;;;;;;2253484;61;20371;-55
2021/09/13 07:29:33;0.00;0.00;0.62;0.00;0.00;0.62;3.93;2.77;;;24.60;40.10;;;;;;2253814;61;20396;-59
2021/09/13 07:32:19;0.00;0.00;0.62;0.00;0.00;0.62;3.50;1.93;;;24.60;40.10;;;;;;2253787;61;20390;-53
2021/09/13 07:35:06;0.00;0.00;0.62;0.00;0.00;0.62;3.70;2.37;;;24.60;40.10;;;;;;2253657;61;20383;-54
2021/09/13 07:37:50;0.00;0.00;0.62;0.00;0.00;0.62;2.63;2.03;;;24.60;40.00;;;;;;2253397;61;20780;-60
2021/09/13 07:40:35;0.00;0.00;0.62;0.00;0.00;0.62;2.10;1.90;;;24.70;40.10;;;;;;2253866;61;20407;-60
2021/09/13 07:43:21;0.00;0.00;0.62;0.00;0.00;0.62;2.20;2.00;;;24.70;40.10;;;;;;2253950;61;20739;-59
2021/09/13 07:46:05;0.00;0.00;0.62;0.00;0.00;0.62;3.27;2.10;;;24.70;40.00;;;;;;2253069;61;20387;-56
2021/09/13 07:48:50;0.00;0.00;0.62;0.00;0.00;0.62;3.10;2.27;;;24.80;40.00;;;;;;2253459;61;20359;-59
2021/09/13 07:51:35;0.00;0.00;0.62;0.00;0.00;0.62;6.50;2.40;;;24.80;40.00;;;;;;2253583;61;20398;-59
2021/09/13 07:54:19;0.00;0.00;0.62;0.00;0.00;0.62;2.73;2.20;;;24.80;39.90;;;;;;2253399;61;20344;-60
2021/09/13 07:57:04;0.00;0.00;0.62;0.00;0.00;0.62;6.17;2.93;;;24.80;39.90;;;;;;2253391;61;20419;-58
2021/09/13 07:59:50;0.00;0.00;0.62;0.00;0.00;0.62;7.87;2.80;;;24.80;39.80;;;;;;2253236;61;20396;-59
2021/09/13 08:02:34;0.00;0.00;0.62;0.00;0.00;0.62;5.47;2.70;;;24.80;39.80;;;;;;2253715;61;20442;-59
2021/09/13 08:05:19;0.00;0.00;0.62;0.00;0.00;0.62;2.63;2.40;;;24.80;39.80;;;;;;2253296;61;20499;-59
2021/09/13 08:08:04;0.00;0.00;0.62;0.00;0.00;0.62;3.17;2.57;;;24.80;40.00;;;;;;2253112;61;20626;-58
2021/09/13 08:10:49;0.00;0.00;0.62;0.00;0.00;0.62;3.50;2.50;;;24.80;40.10;;;;;;2253373;61;20379;-59
2021/09/13 08:13:35;0.00;0.00;0.62;0.00;0.00;0.62;4.40;3.03;;;24.80;40.20;;;;;;2253612;61;20423;-60
2021/09/13 08:16:23;0.00;0.00;0.62;0.00;0.00;0.62;3.23;2.53;;;24.70;40.10;;;;;;2253299;61;20735;-59
2021/09/13 08:19:09;0.00;0.00;0.62;0.00;0.00;0.62;4.03;2.37;;;24.80;40.20;;;;;;2253372;61;20811;-58
2021/09/13 08:21:54;0.00;0.00;0.62;0.00;0.00;0.62;6.83;3.10;;;24.80;40.30;;;;;;2253094;61;20363;-59
2021/09/13 08:24:41;0.00;0.00;0.62;0.00;0.00;0.62;6.30;2.93;;;24.80;40.40;;;;;;2253447;61;20379;-57
2021/09/13 08:27:38;0.00;0.00;0.62;0.00;0.00;0.62;5.87;3.17;;;24.90;40.50;;;;;;2253096;61;20360;-60
2021/09/13 08:30:23;0.00;0.00;0.62;0.00;0.00;0.62;6.63;3.50;;;24.90;40.50;;;;;;2252977;61;20438;-59
2021/09/13 08:33:08;0.00;0.00;0.62;0.00;0.00;0.62;5.93;3.20;;;24.90;40.50;;;;;;2253404;61;20368;-57
2021/09/13 08:35:54;0.00;0.00;0.62;0.00;0.00;0.62;4.37;2.63;;;24.90;40.60;;;;;;2253507;61;20423;-60
2021/09/13 08:38:38;0.00;0.00;0.62;0.00;0.00;0.62;4.60;3.10;;;25.00;40.70;;;;;;2253312;61;20360;-59
2021/09/13 08:41:23;0.00;0.00;0.62;0.00;0.00;0.62;4.30;2.87;;;25.00;40.70;;;;;;2253380;61;20407;-61
2021/09/13 08:44:09;0.00;0.00;0.62;0.00;0.00;0.62;5.80;2.83;;;25.00;40.80;;;;;;2252948;61;20603;-58
2021/09/13 08:47:02;0.00;0.00;0.62;0.00;0.00;0.62;5.53;3.20;;;25.00;40.80;;;;;;2253607;61;20763;-60
2021/09/13 08:49:49;0.00;0.00;0.62;0.00;0.00;0.62;3.97;2.50;;;25.00;40.80;;;;;;2253399;61;20371;-58
2021/09/13 08:52:35;0.00;0.00;0.62;0.00;0.00;0.62;4.63;2.77;;;25.10;40.80;;;;;;2252915;61;20423;-56
2021/09/13 08:55:21;0.00;0.00;0.62;0.00;0.00;0.62;5.57;2.70;;;25.10;40.70;;;;;;2253195;61;20387;-57
2021/09/13 08:58:07;0.00;0.00;0.62;0.00;0.00;0.62;4.80;2.83;;;25.10;40.80;;;;;;2253554;61;20387;-60
2021/09/13 09:00:52;0.00;0.00;0.62;0.00;0.00;0.62;12.13;3.13;;;25.10;40.80;;;;;;2253312;61;20411;-60
2021/09/13 09:03:39;0.00;0.00;0.62;0.00;0.00;0.62;5.20;3.10;;;25.20;40.80;;;;;;2253222;61;20628;-60
2021/09/13 09:06:34;0.00;0.00;0.62;0.00;0.00;0.62;3.57;2.80;;;25.20;40.80;;;;;;2253587;61;20466;-57
2021/09/13 09:09:21;0.00;0.00;0.62;0.00;0.00;0.62;6.00;2.90;;;25.20;40.70;;;;;;2254361;61;20459;-61
2021/09/13 09:12:09;0.00;0.00;0.62;0.00;0.00;0.62;4.30;3.20;;;25.30;40.70;;;;;;2254137;61;20383;-59
2021/09/13 09:14:54;0.00;0.00;0.62;0.00;0.00;0.62;7.60;4.40;;;25.20;40.60;;;;;;2253780;61;20415;-60
2021/09/13 09:17:39;0.00;0.00;0.62;0.00;0.00;0.62;10.90;3.80;;;25.30;40.50;;;;;;2253769;61;20395;-59
2021/09/13 09:20:25;0.00;0.00;0.62;0.00;0.00;0.62;5.07;3.33;;;25.30;40.50;;;;;;2254056;61;20628;-58
2021/09/13 09:23:11;0.00;0.00;0.62;0.00;0.00;0.62;5.20;3.73;;;25.30;40.40;;;;;;2254209;61;20359;-59
2021/09/13 09:26:11;0.00;0.00;0.62;0.00;0.00;0.62;5.17;3.73;;;25.30;40.40;;;;;;2253664;61;20399;-59
2021/09/13 09:28:58;0.00;0.00;0.62;0.00;0.00;0.62;5.47;3.50;;;25.30;40.40;;;;;;2253591;61;20398;-59
2021/09/13 09:31:45;0.00;0.00;0.62;0.00;0.00;0.62;5.37;4.30;;;25.40;40.40;;;;;;2254176;61;20399;-59
2021/09/13 09:34:33;0.00;0.00;0.62;0.00;0.00;0.62;6.13;4.23;;;25.40;40.30;;;;;;2254162;61;20363;-59
2021/09/13 09:37:19;0.00;0.00;0.62;0.00;0.00;0.62;8.47;5.00;;;25.40;40.30;;;;;;2253545;61;20359;-59
2021/09/13 09:40:09;0.00;0.00;0.62;0.00;0.00;0.62;6.00;4.60;;;25.40;40.10;;;;;;2253800;61;20704;-59
2021/09/13 09:42:54;0.00;0.00;0.62;0.00;0.00;0.62;5.10;4.60;;;25.50;40.20;;;;;;2253746;61;20720;-59
2021/09/13 09:45:39;0.00;0.00;0.62;0.00;0.00;0.62;5.77;5.13;;;25.40;40.10;;;;;;2253899;61;20411;-59
2021/09/13 09:48:31;0.00;0.00;0.62;0.00;0.00;0.62;4.63;4.00;;;25.40;40.10;;;;;;2253814;61;20360;-59
2021/09/13 09:51:30;0.00;0.00;0.62;0.00;0.00;0.62;5.30;4.27;;;25.50;40.20;;;;;;2253499;61;20400;-59
2021/09/13 09:54:17;0.00;0.00;0.62;0.00;0.00;0.62;6.20;5.00;;;25.50;40.20;;;;;;2253810;61;20368;-56
2021/09/13 09:57:06;0.00;0.00;0.62;0.00;0.00;0.62;6.90;4.40;;;25.50;40.20;;;;;;2254130;61;20369;-58
2021/09/13 09:59:51;0.00;0.00;0.62;0.00;0.00;0.62;8.63;4.97;;;25.50;40.20;;;;;;2253783;61;20388;-58
2021/09/13 10:02:42;0.00;0.00;0.62;0.00;0.00;0.62;5.40;4.63;;;25.50;40.20;;;;;;2253400;61;20373;-58
2021/09/13 10:05:29;0.00;0.00;0.62;0.00;0.00;0.62;8.50;5.93;;;25.50;40.20;;;;;;2253332;61;20775;-59
2021/09/13 10:08:14;0.00;0.00;0.62;0.00;0.00;0.62;6.30;5.20;;;25.60;40.00;;;;;;2253964;61;20798;-59
2021/09/13 10:10:59;0.00;0.00;0.62;0.00;0.00;0.62;7.00;4.70;;;25.60;40.00;;;;;;2253813;61;20360;-58
2021/09/13 10:13:45;0.00;0.00;0.62;0.00;0.00;0.62;5.17;4.67;;;25.60;40.00;;;;;;2253301;61;20588;-59
2021/09/13 10:16:31;0.00;0.00;0.62;0.00;0.00;0.62;6.63;5.30;;;25.60;39.90;;;;;;2253581;61;20466;-59
2021/09/13 10:19:17;0.00;0.00;0.62;0.00;0.00;0.62;8.10;5.57;;;25.60;39.80;;;;;;2254105;61;20407;-59
2021/09/13 10:22:02;0.00;0.00;0.62;0.00;0.00;0.62;6.43;4.43;;;25.60;39.70;;;;;;2253656;61;20368;-59
2021/09/13 10:24:48;0.00;0.00;0.62;0.00;0.00;0.62;5.30;4.60;;;25.60;40.40;;;;;;2253476;61;20415;-57
2021/09/13 10:27:38;0.00;0.00;0.62;0.00;0.00;0.62;5.73;3.93;;;25.60;39.70;;;;;;2253473;61;20364;-58
2021/09/13 10:30:24;0.00;0.00;0.62;0.00;0.00;0.62;8.40;4.93;;;25.60;39.70;;;;;;2253987;61;20371;-59
2021/09/13 10:33:11;0.00;0.00;0.62;0.00;0.00;0.62;4.60;4.20;;;25.60;39.70;;;;;;2253800;61;20367;-58
2021/09/13 10:35:58;0.00;0.00;0.62;0.00;0.00;0.62;7.60;5.03;;;25.60;39.70;;;;;;2253346;61;20376;-59
2021/09/13 10:38:44;0.00;0.00;0.62;0.00;0.00;0.62;5.90;4.50;;;25.60;39.60;;;;;;2253679;61;20754;-58
2021/09/13 10:41:57;0.00;0.00;0.62;0.00;0.00;0.62;6.40;4.20;;;25.60;39.50;;;;;;2254141;61;20585;-58
2021/09/13 10:45:00;0.00;0.00;0.62;0.00;0.00;0.62;4.37;3.97;;;25.60;39.50;;;;;;2253718;61;20763;-59
2021/09/13 10:47:49;0.00;0.00;0.62;0.00;0.00;0.62;4.87;4.07;;;25.60;39.60;;;;;;2253643;61;20403;-59
2021/09/13 10:50:38;0.00;0.00;0.62;0.00;0.00;0.62;5.10;3.73;;;25.60;39.70;;;;;;2253177;61;20755;-59
2021/09/13 10:53:34;0.00;0.00;0.62;0.00;0.00;0.62;4.60;4.13;;;25.60;39.70;;;;;;2253644;61;20364;-59
2021/09/13 10:56:23;0.00;0.00;0.62;0.00;0.00;0.62;4.17;3.77;;;25.60;39.70;;;;;;2253997;61;20431;-59
2021/09/13 10:59:08;0.00;0.00;0.62;0.00;0.00;0.62;4.70;3.53;;;25.60;39.70;;;;;;2253635;61;20360;-58
2021/09/13 11:02:06;0.00;0.00;0.62;0.00;0.00;0.62;4.77;3.40;;;25.60;39.70;;;;;;2253536;61;20364;-58
2021/09/13 11:05:20;0.00;0.00;0.62;0.00;0.00;0.62;4.77;3.40;;;25.60;39.70;;;;;;2253161;61;20391;-57
2021/09/13 11:08:24;0.00;0.00;0.62;0.00;0.00;0.62;4.40;4.00;;;25.60;39.70;;;;;;2253658;61;20363;-60